Stavanger/Sola Airport

Airport
ICAO code: 
ENZV
IATA Code: 
SVG
Summary
ICAO Region: 
EUR
Territory: 
Location: 
Sola,
Serving: 
Stavanger
Elevation: 
29 ft
Coordinates: 
Aerial View: 
58° 52' 42" N, 5° 38' 7.903" E
Metar
Observation
ENZV 291220Z 13006KT 9999 FEW040 M00/M07 Q1007 NOSIG
Station
Stavanger / Sola
Date/Time
2021-11-29 12:20:00
Wind direction
130°
Wind speed
06 kts
Lowest cloud amount
few clouds
Temperature
-0°C
Dew point
-7°C
Humidity
59%
QNH
1007 hPa
Weather condition
n/a

Description

International airport serving Stavanger and southwest Norway, located in Sola, Norway, 6 nm southwest of Stavanger.

Climatology

Temperate Marine climate/Oceanic climate (Köppen climate classification Cfb). Moderately cool summer and comparatively warm winter with a temperature range of only 14°C. Prevailing south-westerly winds from the Atlantic Ocean.

Runways

Designator Length Width Surface Rops
11/29 2449 45 ASP Yes/Yes
18/36 2856 60 ASP Yes/Yes
Airport map: 
Aerial View: 

SKYbrary Partners:

Safety knowledge contributed by: